sensor_id;sensor_type;location;lat;lon;timestamp;pressure;altitude;pressure_sealevel;temperature;humidity
23059;BME280;30585;51.502;7.218;2022-10-04T00:01:06;152248.47;;;8.13;100.00
23059;BME280;30585;51.502;7.218;2022-10-04T00:03:40;152247.22;;;8.13;100.00
23059;BME280;30585;51.502;7.218;2022-10-04T00:06:15;152251.06;;;8.14;100.00
23059;BME280;30585;51.502;7.218;2022-10-04T00:08:47;152230.44;;;8.06;100.00
23059;BME280;30585;51.502;7.218;2022-10-04T00:11:21;152244.63;;;8.11;100.00
23059;BME280;30585;51.502;7.218;2022-10-04T00:13:52;152236.88;;;8.08;100.00
23059;BME280;30585;51.502;7.218;2022-10-04T00:16:26;152229.09;;;8.05;100.00
23059;BME280;30585;51.502;7.218;2022-10-04T00:19:21;152229.09;;;8.05;100.00
23059;BME280;30585;51.502;7.218;2022-10-04T00:22:16;152168.47;;;7.81;100.00
23059;BME280;30585;51.502;7.218;2022-10-04T00:31:22;152263.94;;;8.19;100.00
23059;BME280;30585;51.502;7.218;2022-10-04T00:33:53;152243.31;;;8.11;100.00
23059;BME280;30585;51.502;7.218;2022-10-04T00:36:44;152274.28;;;8.23;100.00
23059;BME280;30585;51.502;7.218;2022-10-04T00:39:25;152271.69;;;8.22;100.00
23059;BME280;30585;51.502;7.218;2022-10-04T00:42:04;152271.69;;;8.22;100.00
23059;BME280;30585;51.502;7.218;2022-10-04T00:44:39;152227.84;;;8.05;100.00
23059;BME280;30585;51.502;7.218;2022-10-04T00:47:21;152285.91;;;8.28;100.00
23059;BME280;30585;51.502;7.218;2022-10-04T00:49:53;152282.03;;;8.26;100.00
23059;BME280;30585;51.502;7.218;2022-10-04T00:52:25;152253.66;;;8.15;100.00
23059;BME280;30585;51.502;7.218;2022-10-04T00:54:55;152274.28;;;8.23;100.00
23059;BME280;30585;51.502;7.218;2022-10-04T00:57:27;152253.66;;;8.15;100.00
23059;BME280;30585;51.502;7.218;2022-10-04T00:59:59;152257.50;;;8.17;100.00
23059;BME280;30585;51.502;7.218;2022-10-04T01:02:35;152261.34;;;8.18;100.00
23059;BME280;30585;51.502;7.218;2022-10-04T01:05:07;152270.44;;;8.22;100.00
23059;BME280;30585;51.502;7.218;2022-10-04T01:07:38;152278.13;;;8.25;100.00
23059;BME280;30585;51.502;7.218;2022-10-04T01:10:10;152274.28;;;8.23;100.00
23059;BME280;30585;51.502;7.218;2022-10-04T01:12:44;152278.13;;;8.25;100.00
23059;BME280;30585;51.502;7.218;2022-10-04T01:15:24;152271.69;;;8.22;100.00
23059;BME280;30585;51.502;7.218;2022-10-04T01:18:12;152269.09;;;8.21;100.00
23059;BME280;30585;51.502;7.218;2022-10-04T01:20:50;152260.09;;;8.18;100.00
23059;BME280;30585;51.502;7.218;2022-10-04T01:23:37;152252.31;;;8.15;100.00
23059;BME280;30585;51.502;7.218;2022-10-04T01:26:36;152256.22;;;8.16;100.00
23059;BME280;30585;51.502;7.218;2022-10-04T01:29:12;152252.31;;;8.15;100.00
23059;BME280;30585;51.502;7.218;2022-10-04T01:31:42;152245.88;;;8.12;100.00
23059;BME280;30585;51.502;7.218;2022-10-04T01:34:12;152266.53;;;8.20;100.00
23059;BME280;30585;51.502;7.218;2022-10-04T01:36:40;152251.06;;;8.14;100.00
23059;BME280;30585;51.502;7.218;2022-10-04T01:39:11;152243.31;;;8.11;100.00
23059;BME280;30585;51.502;7.218;2022-10-04T01:41:46;152230.44;;;8.06;100.00
23059;BME280;30585;51.502;7.218;2022-10-04T01:44:21;152248.47;;;8.13;100.00
23059;BME280;30585;51.502;7.218;2022-10-04T01:46:51;152253.66;;;8.15;100.00
23059;BME280;30585;51.502;7.218;2022-10-04T01:49:26;152243.31;;;8.11;100.00
23059;BME280;30585;51.502;7.218;2022-10-04T01:51:58;152252.31;;;8.15;100.00
23059;BME280;30585;51.502;7.218;2022-10-04T01:54:34;152251.06;;;8.14;100.00
23059;BME280;30585;51.502;7.218;2022-10-04T01:57:09;152254.91;;;8.16;100.00
23059;BME280;30585;51.502;7.218;2022-10-04T01:59:43;152229.09;;;8.05;100.00
23059;BME280;30585;51.502;7.218;2022-10-04T02:02:20;152279.44;;;8.25;100.00
23059;BME280;30585;51.502;7.218;2022-10-04T02:04:54;152267.84;;;8.21;100.00
23059;BME280;30585;51.502;7.218;2022-10-04T02:07:25;152269.09;;;8.21;100.00
23059;BME280;30585;51.502;7.218;2022-10-04T02:09:58;152222.66;;;8.03;100.00
23059;BME280;30585;51.502;7.218;2022-10-04T02:12:29;152223.94;;;8.03;100.00
23059;BME280;30585;51.502;7.218;2022-10-04T02:15:00;152220.09;;;8.02;100.00
23059;BME280;30585;51.502;7.218;2022-10-04T02:17:30;152189.13;;;7.89;100.00
23059;BME280;30585;51.502;7.218;2022-10-04T02:20:02;152208.47;;;7.97;100.00
23059;BME280;30585;51.502;7.218;2022-10-04T02:22:30;152187.84;;;7.89;100.00
23059;BME280;30585;51.502;7.218;2022-10-04T02:24:59;152198.19;;;7.93;100.00
23059;BME280;30585;51.502;7.218;2022-10-04T02:27:28;152181.41;;;7.86;100.00
23059;BME280;30585;51.502;7.218;2022-10-04T02:30:00;152173.66;;;7.83;100.00
23059;BME280;30585;51.502;7.218;2022-10-04T02:32:30;152172.38;;;7.83;100.00
23059;BME280;30585;51.502;7.218;2022-10-04T02:35:17;152160.78;;;7.78;100.00
23059;BME280;30585;51.502;7.218;2022-10-04T02:37:47;152156.88;;;7.76;100.00
23059;BME280;30585;51.502;7.218;2022-10-04T02:40:20;152145.25;;;7.72;100.00
23059;BME280;30585;51.502;7.218;2022-10-04T02:42:55;152141.41;;;7.70;100.00
23059;BME280;30585;51.502;7.218;2022-10-04T02:45:31;152141.41;;;7.70;100.00
23059;BME280;30585;51.502;7.218;2022-10-04T02:48:02;152105.28;;;7.56;100.00
23059;BME280;30585;51.502;7.218;2022-10-04T02:50:34;152118.19;;;7.61;100.00
23059;BME280;30585;51.502;7.218;2022-10-04T02:53:10;152122.06;;;7.62;100.00
23059;BME280;30585;51.502;7.218;2022-10-04T02:55:42;152129.81;;;7.66;100.00
23059;BME280;30585;51.502;7.218;2022-10-04T02:58:13;152144.00;;;7.71;100.00
23059;BME280;30585;51.502;7.218;2022-10-04T03:00:47;152145.25;;;7.72;100.00
23059;BME280;30585;51.502;7.218;2022-10-04T03:03:20;152140.09;;;7.70;100.00
23059;BME280;30585;51.502;7.218;2022-10-04T03:05:56;152145.25;;;7.72;100.00
23059;BME280;30585;51.502;7.218;2022-10-04T03:08:26;152128.47;;;7.65;100.00
23059;BME280;30585;51.502;7.218;2022-10-04T03:10:56;152147.84;;;7.73;100.00
23059;BME280;30585;51.502;7.218;2022-10-04T03:13:26;152146.59;;;7.72;100.00
23059;BME280;30585;51.502;7.218;2022-10-04T03:15:54;152124.63;;;7.63;100.00
23059;BME280;30585;51.502;7.218;2022-10-04T03:18:22;152122.06;;;7.62;100.00
23059;BME280;30585;51.502;7.218;2022-10-04T03:20:50;152150.44;;;7.74;100.00
23059;BME280;30585;51.502;7.218;2022-10-04T03:23:18;152140.09;;;7.70;100.00
23059;BME280;30585;51.502;7.218;2022-10-04T03:25:51;152138.81;;;7.69;100.00
23059;BME280;30585;51.502;7.218;2022-10-04T03:28:21;152147.84;;;7.73;100.00
23059;BME280;30585;51.502;7.218;2022-10-04T03:30:49;152142.69;;;7.71;100.00
23059;BME280;30585;51.502;7.218;2022-10-04T03:33:23;152137.56;;;7.69;100.00
23059;BME280;30585;51.502;7.218;2022-10-04T03:35:53;152151.69;;;7.74;100.00
23059;BME280;30585;51.502;7.218;2022-10-04T03:38:23;152163.34;;;7.79;100.00
23059;BME280;30585;51.502;7.218;2022-10-04T03:40:54;152167.22;;;7.80;100.00
23059;BME280;30585;51.502;7.218;2022-10-04T03:43:27;152172.38;;;7.83;100.00
23059;BME280;30585;51.502;7.218;2022-10-04T03:45:57;152146.59;;;7.72;100.00
23059;BME280;30585;51.502;7.218;2022-10-04T03:48:30;152160.78;;;7.78;100.00
23059;BME280;30585;51.502;7.218;2022-10-04T03:50:59;152137.56;;;7.69;100.00
23059;BME280;30585;51.502;7.218;2022-10-04T03:53:30;152122.06;;;7.62;100.00
23059;BME280;30585;51.502;7.218;2022-10-04T03:56:02;152101.44;;;7.54;100.00
23059;BME280;30585;51.502;7.218;2022-10-04T03:58:36;152093.66;;;7.51;100.00
23059;BME280;30585;51.502;7.218;2022-10-04T04:01:11;152085.97;;;7.48;100.00
23059;BME280;30585;51.502;7.218;2022-10-04T04:03:49;152067.88;;;7.41;100.00
23059;BME280;30585;51.502;7.218;2022-10-04T04:06:21;152065.34;;;7.40;100.00
23059;BME280;30585;51.502;7.218;2022-10-04T04:08:52;152056.28;;;7.36;100.00
23059;BME280;30585;51.502;7.218;2022-10-04T04:11:22;152066.59;;;7.40;100.00
23059;BME280;30585;51.502;7.218;2022-10-04T04:13:58;152057.59;;;7.37;100.00
23059;BME280;30585;51.502;7.218;2022-10-04T04:16:28;152035.66;;;7.28;100.00
23059;BME280;30585;51.502;7.218;2022-10-04T04:19:00;152051.16;;;7.34;100.00
23059;BME280;30585;51.502;7.218;2022-10-04T04:21:29;152047.25;;;7.32;100.00
23059;BME280;30585;51.502;7.218;2022-10-04T04:24:01;152057.59;;;7.37;100.00
23059;BME280;30585;51.502;7.218;2022-10-04T04:26:35;152048.56;;;7.33;100.00
23059;BME280;30585;51.502;7.218;2022-10-04T04:29:11;152065.34;;;7.40;100.00
23059;BME280;30585;51.502;7.218;2022-10-04T04:31:45;152057.59;;;7.37;100.00
23059;BME280;30585;51.502;7.218;2022-10-04T04:34:17;152038.22;;;7.29;100.00
23059;BME280;30585;51.502;7.218;2022-10-04T04:36:46;152047.25;;;7.32;100.00
23059;BME280;30585;51.502;7.218;2022-10-04T04:39:16;152048.56;;;7.33;100.00
23059;BME280;30585;51.502;7.218;2022-10-04T04:42:05;152044.66;;;7.31;100.00
23059;BME280;30585;51.502;7.218;2022-10-04T04:44:35;152020.19;;;7.22;100.00
23059;BME280;30585;51.502;7.218;2022-10-04T04:47:05;152031.78;;;7.26;100.00
23059;BME280;30585;51.502;7.218;2022-10-04T04:49:37;152031.78;;;7.26;100.00
23059;BME280;30585;51.502;7.218;2022-10-04T04:52:13;152020.19;;;7.22;100.00
23059;BME280;30585;51.502;7.218;2022-10-04T04:54:43;152009.84;;;7.17;100.00
23059;BME280;30585;51.502;7.218;2022-10-04T04:57:14;152013.75;;;7.19;100.00
23059;BME280;30585;51.502;7.218;2022-10-04T04:59:46;152031.78;;;7.26;100.00
23059;BME280;30585;51.502;7.218;2022-10-04T05:02:32;152018.94;;;7.21;100.00
23059;BME280;30585;51.502;7.218;2022-10-04T05:05:18;152031.78;;;7.26;100.00
23059;BME280;30585;51.502;7.218;2022-10-04T05:07:47;152035.66;;;7.28;100.00
23059;BME280;30585;51.502;7.218;2022-10-04T05:10:20;152052.41;;;7.35;100.00
23059;BME280;30585;51.502;7.218;2022-10-04T05:12:48;152016.34;;;7.20;100.00
23059;BME280;30585;51.502;7.218;2022-10-04T05:15:17;152044.66;;;7.31;100.00
23059;BME280;30585;51.502;7.218;2022-10-04T05:17:45;152058.84;;;7.37;100.00
23059;BME280;30585;51.502;7.218;2022-10-04T05:20:13;152071.78;;;7.42;100.00
23059;BME280;30585;51.502;7.218;2022-10-04T05:22:45;152055.00;;;7.36;100.00
23059;BME280;30585;51.502;7.218;2022-10-04T05:25:21;152075.63;;;7.44;100.00
23059;BME280;30585;51.502;7.218;2022-10-04T05:27:52;152061.44;;;7.38;100.00
23059;BME280;30585;51.502;7.218;2022-10-04T05:30:35;152106.59;;;7.56;100.00
23059;BME280;30585;51.502;7.218;2022-10-04T05:33:07;152104.00;;;7.55;100.00
23059;BME280;30585;51.502;7.218;2022-10-04T05:35:43;152113.03;;;7.59;100.00
23059;BME280;30585;51.502;7.218;2022-10-04T05:38:24;152101.44;;;7.54;100.00
23059;BME280;30585;51.502;7.218;2022-10-04T05:41:00;152107.84;;;7.57;100.00
23059;BME280;30585;51.502;7.218;2022-10-04T05:43:35;152104.00;;;7.55;100.00
23059;BME280;30585;51.502;7.218;2022-10-04T05:46:12;152097.56;;;7.53;100.00
23059;BME280;30585;51.502;7.218;2022-10-04T05:48:43;152062.75;;;7.39;100.00
23059;BME280;30585;51.502;7.218;2022-10-04T05:51:16;152057.59;;;7.37;100.00
23059;BME280;30585;51.502;7.218;2022-10-04T05:53:46;152048.56;;;7.33;100.00
23059;BME280;30585;51.502;7.218;2022-10-04T05:56:34;152040.81;;;7.30;100.00
23059;BME280;30585;51.502;7.218;2022-10-04T05:59:17;152039.56;;;7.29;100.00
23059;BME280;30585;51.502;7.218;2022-10-04T06:01:57;152039.56;;;7.29;100.00
23059;BME280;30585;51.502;7.218;2022-10-04T06:04:41;152024.03;;;7.23;100.00
23059;BME280;30585;51.502;7.218;2022-10-04T06:07:16;152031.78;;;7.26;100.00
23059;BME280;30585;51.502;7.218;2022-10-04T06:09:54;152045.97;;;7.32;100.00
23059;BME280;30585;51.502;7.218;2022-10-04T06:12:33;152031.78;;;7.26;100.00
23059;BME280;30585;51.502;7.218;2022-10-04T06:15:38;152055.00;;;7.36;100.00
23059;BME280;30585;51.502;7.218;2022-10-04T06:18:25;152065.34;;;7.40;100.00
23059;BME280;30585;51.502;7.218;2022-10-04T06:21:07;152082.06;;;7.46;100.00
23059;BME280;30585;51.502;7.218;2022-10-04T06:23:44;152089.81;;;7.49;100.00
23059;BME280;30585;51.502;7.218;2022-10-04T06:26:18;152127.22;;;7.64;100.00
23059;BME280;30585;51.502;7.218;2022-10-04T06:28:50;152079.47;;;7.45;100.00
23059;BME280;30585;51.502;7.218;2022-10-04T06:31:41;152163.34;;;7.79;100.00
23059;BME280;30585;51.502;7.218;2022-10-04T06:43:34;152256.22;;;8.16;100.00
23059;BME280;30585;51.502;7.218;2022-10-04T06:46:09;152279.44;;;8.25;100.00
23059;BME280;30585;51.502;7.218;2022-10-04T06:49:08;152318.16;;;8.41;100.00
23059;BME280;30585;51.502;7.218;2022-10-04T06:51:55;152323.31;;;8.43;100.00
23059;BME280;30585;51.502;7.218;2022-10-04T06:54:45;152377.59;;;8.65;100.00
23059;BME280;30585;51.502;7.218;2022-10-04T06:57:34;152426.63;;;8.84;100.00
23059;BME280;30585;51.502;7.218;2022-10-04T07:00:12;152445.97;;;8.92;100.00
23059;BME280;30585;51.502;7.218;2022-10-04T07:02:48;152469.19;;;9.01;100.00
23059;BME280;30585;51.502;7.218;2022-10-04T07:05:22;152474.38;;;9.03;100.00
23059;BME280;30585;51.502;7.218;2022-10-04T07:08:03;152495.03;;;9.12;100.00
23059;BME280;30585;51.502;7.218;2022-10-04T07:10:46;152511.81;;;9.18;100.00
23059;BME280;30585;51.502;7.218;2022-10-04T07:13:28;152533.78;;;9.27;100.00
23059;BME280;30585;51.502;7.218;2022-10-04T07:16:01;152562.16;;;9.39;100.00
23059;BME280;30585;51.502;7.218;2022-10-04T07:18:38;152599.59;;;9.54;100.00
23059;BME280;30585;51.502;7.218;2022-10-04T07:21:11;152619.00;;;9.61;100.00
23059;BME280;30585;51.502;7.218;2022-10-04T07:23:47;152671.94;;;9.82;100.00
23059;BME280;30585;51.502;7.218;2022-10-04T07:26:26;152702.94;;;9.95;100.00
23059;BME280;30585;51.502;7.218;2022-10-04T07:28:57;152740.44;;;10.10;100.00
23059;BME280;30585;51.502;7.218;2022-10-04T07:31:47;152776.56;;;10.24;100.00
23059;BME280;30585;51.502;7.218;2022-10-04T07:34:21;152802.44;;;10.35;100.00
23059;BME280;30585;51.502;7.218;2022-10-04T07:36:53;152836.09;;;10.48;100.00
23059;BME280;30585;51.502;7.218;2022-10-04T07:39:24;152829.63;;;10.46;100.00
23059;BME280;30585;51.502;7.218;2022-10-04T07:41:55;152877.44;;;10.65;100.00
23059;BME280;30585;51.502;7.218;2022-10-04T07:44:31;152868.41;;;10.61;100.00
23059;BME280;30585;51.502;7.218;2022-10-04T07:47:04;152926.56;;;10.84;100.00
23059;BME280;30585;51.502;7.218;2022-10-04T07:49:37;152948.56;;;10.93;100.00
23059;BME280;30585;51.502;7.218;2022-10-04T07:52:27;152989.91;;;11.10;100.00
23059;BME280;30585;51.502;7.218;2022-10-04T07:55:05;152969.22;;;11.01;100.00
23059;BME280;30585;51.502;7.218;2022-10-04T07:57:39;153020.94;;;11.22;100.00
23059;BME280;30585;51.502;7.218;2022-10-04T08:00:15;153063.63;;;11.39;100.00
23059;BME280;30585;51.502;7.218;2022-10-04T08:02:54;153063.63;;;11.39;100.00
23059;BME280;30585;51.502;7.218;2022-10-04T08:05:27;153050.69;;;11.34;100.00
23059;BME280;30585;51.502;7.218;2022-10-04T08:08:19;153121.81;;;11.62;100.00
23059;BME280;30585;51.502;7.218;2022-10-04T08:10:55;153106.28;;;11.56;100.00
23059;BME280;30585;51.502;7.218;2022-10-04T08:13:37;153156.75;;;11.76;100.00
23059;BME280;30585;51.502;7.218;2022-10-04T08:16:19;153261.59;;;12.18;100.00
23059;BME280;30585;51.502;7.218;2022-10-04T08:19:06;153282.28;;;12.26;100.00
23059;BME280;30585;51.502;7.218;2022-10-04T08:21:44;153240.88;;;12.10;100.00
23059;BME280;30585;51.502;7.218;2022-10-04T08:24:19;153266.78;;;12.20;100.00
23059;BME280;30585;51.502;7.218;2022-10-04T08:27:00;153287.47;;;12.28;100.00
23059;BME280;30585;51.502;7.218;2022-10-04T08:29:50;153312.03;;;12.38;100.00
23059;BME280;30585;51.502;7.218;2022-10-04T08:32:31;153339.22;;;12.49;100.00
23059;BME280;30585;51.502;7.218;2022-10-04T08:35:27;153418.19;;;12.81;100.00
23059;BME280;30585;51.502;7.218;2022-10-04T08:38:07;153507.50;;;13.16;100.00
23059;BME280;30585;51.502;7.218;2022-10-04T08:53:28;153631.84;;;13.66;94.53
23059;BME280;30585;51.502;7.218;2022-10-04T08:56:17;153774.38;;;14.23;99.90
23059;BME280;30585;51.502;7.218;2022-10-04T09:02:10;153819.69;;;14.41;94.62
23059;BME280;30585;51.502;7.218;2022-10-04T09:11:25;153815.81;;;14.39;87.76
23059;BME280;30585;51.502;7.218;2022-10-04T09:14:18;153861.16;;;14.57;88.99
23059;BME280;30585;51.502;7.218;2022-10-04T09:16:55;153894.91;;;14.71;87.63
23059;BME280;30585;51.502;7.218;2022-10-04T09:19:35;153894.91;;;14.71;88.64
23059;BME280;30585;51.502;7.218;2022-10-04T09:22:29;153979.19;;;15.04;89.49
23059;BME280;30585;51.502;7.218;2022-10-04T09:25:19;154014.16;;;15.18;87.11
23059;BME280;30585;51.502;7.218;2022-10-04T09:28:03;153999.91;;;15.13;87.97
23059;BME280;30585;51.502;7.218;2022-10-04T09:30:47;154027.16;;;15.23;88.56
23059;BME280;30585;51.502;7.218;2022-10-04T09:33:34;154006.38;;;15.15;87.92
23059;BME280;30585;51.502;7.218;2022-10-04T09:36:27;153986.97;;;15.07;88.38
23059;BME280;30585;51.502;7.218;2022-10-04T09:42:12;154160.72;;;15.77;83.10
23059;BME280;30585;51.502;7.218;2022-10-04T09:45:02;154128.25;;;15.64;85.43
23059;BME280;30585;51.502;7.218;2022-10-04T09:47:43;154091.97;;;15.49;84.05
23059;BME280;30585;51.502;7.218;2022-10-04T09:50:40;154084.19;;;15.46;81.13
23059;BME280;30585;51.502;7.218;2022-10-04T09:53:33;154184.13;;;15.86;87.43
23059;BME280;30585;51.502;7.218;2022-10-04T09:56:25;154237.31;;;16.07;79.35
23059;BME280;30585;51.502;7.218;2022-10-04T09:59:16;154082.91;;;15.46;82.72
23059;BME280;30585;51.502;7.218;2022-10-04T10:02:02;154098.44;;;15.52;80.95
23059;BME280;30585;51.502;7.218;2022-10-04T10:04:46;154071.25;;;15.41;79.82
23059;BME280;30585;51.502;7.218;2022-10-04T10:07:29;154184.13;;;15.86;83.50
23059;BME280;30585;51.502;7.218;2022-10-04T10:10:05;154246.38;;;16.11;81.89
23059;BME280;30585;51.502;7.218;2022-10-04T10:13:18;154313.81;;;16.38;81.80
23059;BME280;30585;51.502;7.218;2022-10-04T10:16:26;154360.53;;;16.56;83.63
23059;BME280;30585;51.502;7.218;2022-10-04T10:19:11;154324.22;;;16.42;78.82
23059;BME280;30585;51.502;7.218;2022-10-04T10:22:03;154319.03;;;16.40;81.93
23059;BME280;30585;51.502;7.218;2022-10-04T10:25:13;154246.38;;;16.11;77.33
23059;BME280;30585;51.502;7.218;2022-10-04T10:28:04;154264.53;;;16.18;80.21
23059;BME280;30585;51.502;7.218;2022-10-04T10:30:53;154304.75;;;16.34;82.31
23059;BME280;30585;51.502;7.218;2022-10-04T10:33:38;154369.59;;;16.60;79.08
23059;BME280;30585;51.502;7.218;2022-10-04T10:36:28;154425.47;;;16.82;78.21
23059;BME280;30585;51.502;7.218;2022-10-04T10:39:21;154321.63;;;16.41;75.50
23059;BME280;30585;51.502;7.218;2022-10-04T10:42:09;154232.09;;;16.05;75.04
23059;BME280;30585;51.502;7.218;2022-10-04T10:45:01;154316.44;;;16.39;76.03
23059;BME280;30585;51.502;7.218;2022-10-04T10:47:42;154412.44;;;16.77;78.01
23059;BME280;30585;51.502;7.218;2022-10-04T10:50:29;154500.81;;;17.12;76.84
23059;BME280;30585;51.502;7.218;2022-10-04T10:53:47;154555.28;;;17.34;77.36
23059;BME280;30585;51.502;7.218;2022-10-04T10:56:30;154630.59;;;17.64;74.65
23059;BME280;30585;51.502;7.218;2022-10-04T11:05:50;154557.88;;;17.35;72.80
23059;BME280;30585;51.502;7.218;2022-10-04T11:08:44;154559.22;;;17.35;74.84
23059;BME280;30585;51.502;7.218;2022-10-04T11:11:31;154718.94;;;17.99;74.83
23059;BME280;30585;51.502;7.218;2022-10-04T11:14:22;154586.47;;;17.46;70.64
23059;BME280;30585;51.502;7.218;2022-10-04T11:17:12;154703.31;;;17.92;71.84
23059;BME280;30585;51.502;7.218;2022-10-04T11:23:38;154783.91;;;18.25;70.06
23059;BME280;30585;51.502;7.218;2022-10-04T11:26:42;154776.13;;;18.21;70.60
23059;BME280;30585;51.502;7.218;2022-10-04T11:29:29;154789.13;;;18.27;68.26
23059;BME280;30585;51.502;7.218;2022-10-04T11:35:33;154873.56;;;18.60;69.29
23059;BME280;30585;51.502;7.218;2022-10-04T11:38:09;154895.63;;;18.69;66.45
23059;BME280;30585;51.502;7.218;2022-10-04T11:40:52;154599.41;;;17.51;67.88
23059;BME280;30585;51.502;7.218;2022-10-04T11:43:39;154651.38;;;17.72;66.99
23059;BME280;30585;51.502;7.218;2022-10-04T11:46:21;154755.34;;;18.13;70.94
23059;BME280;30585;51.502;7.218;2022-10-04T11:49:04;154777.44;;;18.22;69.14
23059;BME280;30585;51.502;7.218;2022-10-04T11:51:59;154903.44;;;18.72;66.22
23059;BME280;30585;51.502;7.218;2022-10-04T11:55:06;154872.25;;;18.60;65.13
23059;BME280;30585;51.502;7.218;2022-10-04T11:57:47;154760.53;;;18.15;69.57
23059;BME280;30585;51.502;7.218;2022-10-04T12:00:20;154844.97;;;18.49;65.25
23059;BME280;30585;51.502;7.218;2022-10-04T12:03:26;154963.25;;;18.96;68.08
23059;BME280;30585;51.502;7.218;2022-10-04T12:06:11;155077.66;;;19.41;63.29
23059;BME280;30585;51.502;7.218;2022-10-04T12:08:51;155042.56;;;19.27;64.27
23059;BME280;30585;51.502;7.218;2022-10-04T12:11:36;154908.66;;;18.74;60.75
23059;BME280;30585;51.502;7.218;2022-10-04T12:14:36;154846.25;;;18.49;64.19
23059;BME280;30585;51.502;7.218;2022-10-04T12:20:37;154900.84;;;18.71;62.25
23059;BME280;30585;51.502;7.218;2022-10-04T12:26:33;154904.72;;;18.73;64.93
23059;BME280;30585;51.502;7.218;2022-10-04T12:29:39;154904.72;;;18.73;61.26
23059;BME280;30585;51.502;7.218;2022-10-04T12:32:13;155003.56;;;19.12;64.70
23059;BME280;30585;51.502;7.218;2022-10-04T12:34:52;155091.97;;;19.47;64.82
23059;BME280;30585;51.502;7.218;2022-10-04T12:37:29;155017.84;;;19.18;62.81
23059;BME280;30585;51.502;7.218;2022-10-04T12:40:20;154968.47;;;18.98;62.25
23059;BME280;30585;51.502;7.218;2022-10-04T12:42:53;155123.16;;;19.59;64.78
23059;BME280;30585;51.502;7.218;2022-10-04T12:45:47;155004.88;;;19.12;61.40
23059;BME280;30585;51.502;7.218;2022-10-04T12:48:29;155166.06;;;19.76;61.52
23059;BME280;30585;51.502;7.218;2022-10-04T12:51:10;155205.09;;;19.92;59.12
23059;BME280;30585;51.502;7.218;2022-10-04T12:53:50;155194.72;;;19.88;57.87
23059;BME280;30585;51.502;7.218;2022-10-04T12:56:37;155065.97;;;19.37;59.65
23059;BME280;30585;51.502;7.218;2022-10-04T12:59:18;155002.28;;;19.11;53.85
23059;BME280;30585;51.502;7.218;2022-10-04T13:01:55;155073.75;;;19.40;59.02
23059;BME280;30585;51.502;7.218;2022-10-04T13:04:37;155111.44;;;19.55;57.59
23059;BME280;30585;51.502;7.218;2022-10-04T13:07:21;155075.06;;;19.40;54.64
23059;BME280;30585;51.502;7.218;2022-10-04T13:10:08;155052.94;;;19.31;53.85
23059;BME280;30585;51.502;7.218;2022-10-04T13:13:12;155056.88;;;19.33;55.25
23059;BME280;30585;51.502;7.218;2022-10-04T13:15:50;155037.38;;;19.25;55.53
23059;BME280;30585;51.502;7.218;2022-10-04T13:18:49;155160.84;;;19.74;56.98
23059;BME280;30585;51.502;7.218;2022-10-04T13:24:33;155309.16;;;20.33;53.58
23059;BME280;30585;51.502;7.218;2022-10-04T13:27:28;155229.84;;;20.02;55.19
23059;BME280;30585;51.502;7.218;2022-10-04T13:30:03;155255.84;;;20.12;58.19
23059;BME280;30585;51.502;7.218;2022-10-04T13:35:11;155310.50;;;20.34;55.79
23059;BME280;30585;51.502;7.218;2022-10-04T13:37:48;155127.06;;;19.61;55.38
23059;BME280;30585;51.502;7.218;2022-10-04T13:40:43;155309.16;;;20.33;53.77
23059;BME280;30585;51.502;7.218;2022-10-04T13:43:36;155185.59;;;19.84;53.11
23059;BME280;30585;51.502;7.218;2022-10-04T13:46:17;155323.47;;;20.39;58.06
23059;BME280;30585;51.502;7.218;2022-10-04T13:48:56;155316.97;;;20.36;56.11
23059;BME280;30585;51.502;7.218;2022-10-04T13:51:44;155352.09;;;20.50;55.51
23059;BME280;30585;51.502;7.218;2022-10-04T13:54:21;155521.28;;;21.17;55.74
23059;BME280;30585;51.502;7.218;2022-10-04T13:57:18;155519.97;;;21.17;50.49
23059;BME280;30585;51.502;7.218;2022-10-04T13:59:52;155570.75;;;21.37;51.99
23059;BME280;30585;51.502;7.218;2022-10-04T14:08:55;155075.06;;;19.40;51.86
23059;BME280;30585;51.502;7.218;2022-10-04T14:15:04;155108.84;;;19.54;50.77
23059;BME280;30585;51.502;7.218;2022-10-04T14:17:55;155194.72;;;19.88;53.20
23059;BME280;30585;51.502;7.218;2022-10-04T14:24:05;155314.38;;;20.35;53.32
23059;BME280;30585;51.502;7.218;2022-10-04T14:26:52;155171.28;;;19.78;51.11
23059;BME280;30585;51.502;7.218;2022-10-04T14:29:39;155140.06;;;19.66;53.55
23059;BME280;30585;51.502;7.218;2022-10-04T14:35:25;155173.88;;;19.80;53.66
23059;BME280;30585;51.502;7.218;2022-10-04T14:38:12;155235.03;;;20.04;56.78
23059;BME280;30585;51.502;7.218;2022-10-04T14:46:59;155046.47;;;19.29;54.47
23059;BME280;30585;51.502;7.218;2022-10-04T14:49:47;155134.84;;;19.64;57.61
23059;BME280;30585;51.502;7.218;2022-10-04T14:52:37;155075.06;;;19.40;55.93
23059;BME280;30585;51.502;7.218;2022-10-04T14:55:25;155025.66;;;19.21;58.27
23059;BME280;30585;51.502;7.218;2022-10-04T14:58:10;154999.66;;;19.10;56.93
23059;BME280;30585;51.502;7.218;2022-10-04T15:00:57;154943.75;;;18.88;58.98
23059;BME280;30585;51.502;7.218;2022-10-04T15:03:31;154930.72;;;18.83;57.47
23059;BME280;30585;51.502;7.218;2022-10-04T15:06:24;154791.69;;;18.28;58.87
23059;BME280;30585;51.502;7.218;2022-10-04T15:09:09;154852.75;;;18.52;59.19
23059;BME280;30585;51.502;7.218;2022-10-04T15:11:47;154768.31;;;18.18;59.27
23059;BME280;30585;51.502;7.218;2022-10-04T15:14:41;154822.88;;;18.40;61.61
23059;BME280;30585;51.502;7.218;2022-10-04T15:17:27;154833.28;;;18.44;59.95
23059;BME280;30585;51.502;7.218;2022-10-04T15:20:03;154822.88;;;18.40;60.59
23059;BME280;30585;51.502;7.218;2022-10-04T15:22:39;154838.50;;;18.46;61.80
23059;BME280;30585;51.502;7.218;2022-10-04T15:25:38;154874.84;;;18.61;64.68